Time;durP1;ratioP1;P1;durP2;ratioP2;P2;SDS_P1;SDS_P2;PMS_P1;PMS_P2;Temp;Humidity;BMP_temperature;BMP_pressure;BME280_temperature;BME280_humidity;BME280_pressure;Samples;Min_cycle;Max_cycle;Signal;HPM_P1;HPM_P2
2021/04/29 00:01:01;;;;;;;9.43;7.43;;;;;;;6.48;41.04;98708.88;510252;1108;116011;-62
2021/04/29 00:11:08;;;;;;;8.58;6.90;;;;;;;6.46;40.85;98706.36;510745;1107;115912;-64
2021/04/29 00:21:23;;;;;;;10.60;7.97;;;;;;;6.40;41.08;98698.92;510191;1108;115837;-68
2021/04/29 00:31:30;;;;;;;12.70;8.23;;;;;;;6.35;41.19;98693.14;509481;1107;115586;-67
2021/04/29 00:41:35;;;;;;;10.57;7.27;;;;;;;6.23;41.52;98692.13;511698;1103;115629;-67
2021/04/29 00:51:40;;;;;;;13.47;7.70;;;;;;;6.10;41.71;98689.41;512061;1103;116020;-67
2021/04/29 01:01:48;;;;;;;9.13;6.87;;;;;;;5.89;42.48;98684.55;511436;1108;115893;-65
2021/04/29 01:12:00;;;;;;;15.75;8.80;;;;;;;5.75;43.08;98673.15;515576;1107;115892;-65
2021/04/29 01:22:06;;;;;;;14.00;8.33;;;;;;;5.74;42.93;98675.86;512273;1107;117234;-64
2021/04/29 01:32:12;;;;;;;14.25;8.95;;;;;;;5.68;43.50;98678.81;512793;1107;115951;-65
2021/04/29 01:42:17;;;;;;;10.07;8.23;;;;;;;5.60;44.70;98669.70;512685;1103;114974;-64
2021/04/29 01:52:22;;;;;;;15.30;9.80;;;;;;;5.49;45.16;98676.45;510513;1103;115477;-65
2021/04/29 02:02:27;;;;;;;11.57;9.20;;;;;;;5.28;45.62;98672.39;513358;1108;115430;-64
2021/04/29 02:12:36;;;;;;;12.77;9.83;;;;;;;5.07;46.05;98669.22;512656;1107;115769;-66
2021/04/29 02:22:42;;;;;;;15.73;10.60;;;;;;;4.95;46.80;98662.95;510485;1108;116252;-65
2021/04/29 02:32:47;;;;;;;17.17;11.43;;;;;;;4.82;47.95;98657.58;510136;1107;116246;-66
2021/04/29 02:42:52;;;;;;;15.53;11.63;;;;;;;4.73;48.41;98642.48;510069;1107;116028;-63
2021/04/29 02:52:58;;;;;;;16.73;12.30;;;;;;;4.64;48.58;98636.03;510873;1108;117474;-68
2021/04/29 03:03:03;;;;;;;16.15;10.30;;;;;;;4.62;48.75;98636.13;510271;1103;115392;-65
2021/04/29 03:13:08;;;;;;;16.00;12.00;;;;;;;4.55;49.56;98637.38;509773;1101;115632;-65
2021/04/29 03:23:12;;;;;;;18.27;12.20;;;;;;;4.53;49.99;98634.03;510226;1100;116206;-65
2021/04/29 03:33:17;;;;;;;20.10;12.25;;;;;;;4.57;50.25;98639.91;510195;1102;116162;-66
2021/04/29 03:43:22;;;;;;;20.50;12.73;;;;;;;4.70;50.58;98640.05;509647;1100;115833;-65
2021/04/29 03:53:27;;;;;;;23.07;14.97;;;;;;;4.94;50.28;98637.02;511137;1107;117286;-66
2021/04/29 04:03:31;;;;;;;16.43;13.13;;;;;;;5.31;50.12;98633.16;511191;1103;116351;-65
2021/04/29 04:13:36;;;;;;;19.10;13.97;;;;;;;5.88;49.56;98643.76;512181;1108;115732;-64
2021/04/29 04:23:40;;;;;;;19.17;14.20;;;;;;;6.56;48.76;98633.62;512170;1107;116073;-66
2021/04/29 04:33:45;;;;;;;19.87;14.30;;;;;;;7.34;47.25;98636.52;516977;1107;115618;-66
2021/04/29 04:43:49;;;;;;;21.10;13.20;;;;;;;7.98;46.52;98618.27;512594;1107;115779;-64
2021/04/29 04:53:54;;;;;;;20.63;14.70;;;;;;;8.65;45.58;98616.26;510069;1100;115529;-66
2021/04/29 05:03:59;;;;;;;20.05;14.80;;;;;;;11.28;43.68;98603.28;511377;1107;116172;-65
2021/04/29 05:14:05;;;;;;;23.43;15.37;;;;;;;15.69;39.06;98591.34;511294;1103;116625;-65
2021/04/29 05:24:11;;;;;;;22.23;15.83;;;;;;;18.54;34.53;98577.11;510807;1107;115529;-66
2021/04/29 05:34:15;;;;;;;18.70;14.93;;;;;;;21.69;30.47;98574.24;510251;1106;116480;-66
2021/04/29 05:44:20;;;;;;;19.50;14.88;;;;;;;24.40;27.48;98578.06;510720;1107;115653;-65
2021/04/29 05:54:25;;;;;;;19.13;15.20;;;;;;;27.10;24.93;98571.71;511138;1103;115993;-65
2021/04/29 06:04:30;;;;;;;19.43;13.57;;;;;;;28.57;22.54;98571.07;510173;1107;116573;-64
2021/04/29 06:14:35;;;;;;;16.63;15.00;;;;;;;31.79;20.63;98570.38;510836;1107;116456;-67
2021/04/29 06:24:40;;;;;;;15.30;13.77;;;;;;;35.74;18.04;98568.28;510021;1103;116395;-63
2021/04/29 06:34:46;;;;;;;17.15;14.05;;;;;;;37.88;15.99;98553.77;511398;1108;116147;-62
2021/04/29 06:44:51;;;;;;;16.33;14.65;;;;;;;39.07;14.30;98558.53;510600;1102;116572;-62
2021/04/29 06:54:56;;;;;;;15.35;13.00;;;;;;;38.93;14.27;98551.17;510567;1107;117320;-61
2021/04/29 07:05:00;;;;;;;14.55;11.90;;;;;;;38.35;13.74;98539.09;510791;1107;116692;-62
2021/04/29 07:15:07;;;;;;;13.33;11.83;;;;;;;39.92;13.28;98538.41;485240;1107;20003220;-61
2021/04/29 07:25:12;;;;;;;13.83;11.78;;;;;;;40.99;12.35;98529.02;509899;1103;116797;-66
2021/04/29 07:35:18;;;;;;;18.53;12.73;;;;;;;36.03;13.53;98515.50;510601;1107;118948;-67
2021/04/29 07:45:22;;;;;;;26.18;12.50;;;;;;;32.83;14.73;98506.31;503817;1103;10003912;-65
2021/04/29 07:55:28;;;;;;;13.20;11.90;;;;;;;33.48;15.95;98502.22;509993;1107;117224;-63
2021/04/29 08:05:33;;;;;;;12.50;11.20;;;;;;;36.41;14.42;98495.57;510240;1103;116895;-63
2021/04/29 08:15:38;;;;;;;12.83;10.97;;;;;;;32.18;15.20;98471.48;518644;1102;115906;-59
2021/04/29 08:25:43;;;;;;;11.77;10.57;;;;;;;28.17;17.88;98468.31;511017;1100;116649;-63
2021/04/29 08:35:48;;;;;;;8.00;5.00;;;;;;;25.90;18.79;98455.78;512516;1108;116246;-62
2021/04/29 08:45:53;;;;;;;6.40;5.00;;;;;;;23.99;20.87;98462.93;510316;1108;115588;-61
2021/04/29 08:55:58;;;;;;;8.20;6.10;;;;;;;22.71;22.46;98457.00;511546;1107;115297;-62
2021/04/29 09:06:05;;;;;;;9.47;6.07;;;;;;;22.08;23.51;98457.06;502390;1107;10001220;-63
2021/04/29 09:16:12;;;;;;;12.80;7.03;;;;;;;22.04;25.21;98447.81;521304;1103;116107;-63
2021/04/29 09:26:19;;;;;;;8.65;5.50;;;;;;;22.11;26.16;98443.31;513603;1101;116082;-62
2021/04/29 09:36:25;;;;;;;9.67;6.87;;;;;;;22.00;26.95;98427.86;516205;1107;115451;-63
2021/04/29 09:46:40;;;;;;;9.07;5.53;;;;;;;21.74;27.85;98413.38;514965;1107;116276;-62
2021/04/29 09:56:53;;;;;;;10.33;6.40;;;;;;;21.83;28.08;98411.38;513877;1107;115515;-62
2021/04/29 10:07:01;;;;;;;8.40;6.90;;;;;;;21.87;28.43;98407.27;509930;1107;116363;-63
2021/04/29 10:17:09;;;;;;;10.77;7.20;;;;;;;21.23;28.47;98404.70;517556;1108;115987;-62
2021/04/29 10:27:23;;;;;;;11.80;7.80;;;;;;;20.60;28.92;98410.80;510532;1100;116529;-61
2021/04/29 10:37:28;;;;;;;8.70;7.43;;;;;;;20.32;29.49;98400.92;509882;1102;115743;-63
2021/04/29 10:47:34;;;;;;;10.57;7.50;;;;;;;20.11;29.49;98383.11;513736;1107;115188;-63
2021/04/29 10:57:42;;;;;;;13.67;6.93;;;;;;;20.16;29.68;98380.69;513931;1107;117147;-59
2021/04/29 11:07:49;;;;;;;8.45;5.80;;;;;;;20.22;29.10;98371.10;510650;1107;116019;-66
2021/04/29 11:18:05;;;;;;;9.73;6.33;;;;;;;20.40;29.36;98347.48;512196;1107;118083;-59
2021/04/29 11:28:11;;;;;;;9.03;6.20;;;;;;;20.23;29.02;98341.61;511624;1107;115785;-60
2021/04/29 11:38:16;;;;;;;8.80;5.18;;;;;;;20.32;29.08;98344.95;516195;1107;115987;-71
2021/04/29 11:48:25;;;;;;;10.10;5.70;;;;;;;20.58;28.91;98344.34;510465;1103;116036;-60
2021/04/29 11:58:29;;;;;;;7.87;4.80;;;;;;;20.53;29.59;98341.41;512576;1108;115569;-57
2021/04/29 12:08:35;;;;;;;10.77;5.83;;;;;;;20.54;30.85;98348.39;521728;1107;116128;-59
2021/04/29 12:18:44;;;;;;;8.30;4.97;;;;;;;21.08;31.36;98337.30;512374;1103;116039;-59
2021/04/29 12:28:48;;;;;;;7.23;4.67;;;;;;;21.39;31.29;98323.46;510523;1107;115638;-60
2021/04/29 12:38:53;;;;;;;11.90;5.13;;;;;;;21.38;31.73;98318.31;511425;1107;115999;-59
2021/04/29 12:48:59;;;;;;;10.40;5.43;;;;;;;21.41;32.08;98309.89;514619;1107;115952;-63
2021/04/29 12:59:13;;;;;;;6.53;5.30;;;;;;;21.66;31.90;98299.53;514514;1107;115922;-61
2021/04/29 13:09:20;;;;;;;8.17;6.27;;;;;;;21.52;31.86;98298.63;513516;1103;115554;-59
2021/04/29 13:19:25;;;;;;;8.20;6.37;;;;;;;20.90;32.59;98297.80;512069;1103;115919;-61
2021/04/29 13:29:31;;;;;;;7.37;6.63;;;;;;;20.56;33.33;98292.22;510780;1106;116752;-60
2021/04/29 13:39:36;;;;;;;7.80;6.87;;;;;;;20.75;33.63;98280.02;510576;1107;116285;-60
2021/04/29 13:49:41;;;;;;;20.95;8.40;;;;;;;20.70;34.38;98272.61;514463;1107;115375;-62
2021/04/29 13:59:46;;;;;;;12.77;9.00;;;;;;;20.48;35.01;98279.03;515168;1100;116159;-61
2021/04/29 14:09:51;;;;;;;12.85;8.30;;;;;;;20.53;34.97;98285.42;516601;1103;174278;-62
2021/04/29 14:19:55;;;;;;;15.50;8.37;;;;;;;20.08;35.36;98292.88;520785;1107;116070;-63
2021/04/29 14:30:00;;;;;;;9.83;8.53;;;;;;;19.72;36.02;98284.74;527376;1107;115880;-62
2021/04/29 14:40:06;;;;;;;15.15;9.85;;;;;;;19.52;37.15;98279.22;511114;1103;115676;-64
2021/04/29 14:50:13;;;;;;;12.63;8.05;;;;;;;19.68;36.96;98269.33;511565;1100;116447;-63
2021/04/29 15:00:19;;;;;;;10.43;8.13;;;;;;;19.46;37.12;98280.80;512415;1107;115813;-62
2021/04/29 15:10:26;;;;;;;12.07;8.10;;;;;;;19.13;38.25;98272.45;510107;1107;115413;-63
2021/04/29 15:20:31;;;;;;;13.65;8.85;;;;;;;19.27;38.48;98276.91;511086;1107;116007;-63
2021/04/29 15:30:35;;;;;;;13.57;8.80;;;;;;;19.36;38.49;98263.50;510506;1107;116524;-63
2021/04/29 15:40:40;;;;;;;12.00;9.27;;;;;;;19.20;38.76;98252.05;510254;1107;116906;-61
2021/04/29 15:50:45;;;;;;;10.17;8.37;;;;;;;18.81;38.83;98251.34;511350;1107;115135;-63
2021/04/29 16:00:50;;;;;;;14.27;9.87;;;;;;;18.52;39.79;98257.48;512876;1107;115837;-64
2021/04/29 16:10:55;;;;;;;12.70;11.00;;;;;;;18.14;40.76;98253.88;514582;1100;116753;-65
2021/04/29 16:20:59;;;;;;;18.57;11.20;;;;;;;18.09;41.62;98250.95;516560;1100;116576;-63
2021/04/29 16:31:04;;;;;;;13.23;9.77;;;;;;;18.49;41.74;98245.41;509708;1100;117324;-63
2021/04/29 16:41:09;;;;;;;11.43;7.73;;;;;;;18.52;41.42;98254.83;518207;1106;115546;-63
2021/04/29 16:51:14;;;;;;;8.83;6.77;;;;;;;17.97;41.77;98258.47;510294;1101;116477;-64
2021/04/29 17:01:19;;;;;;;8.63;6.00;;;;;;;17.41;42.53;98274.65;511032;1107;116566;-64
2021/04/29 17:11:23;;;;;;;16.70;6.57;;;;;;;16.94;42.64;98277.16;510625;1107;115695;-63
2021/04/29 17:21:28;;;;;;;9.70;5.00;;;;;;;16.53;43.32;98283.42;510673;1107;116540;-62
2021/04/29 17:31:33;;;;;;;7.80;5.83;;;;;;;16.25;43.90;98287.27;511323;1107;115331;-63
2021/04/29 17:41:37;;;;;;;19.33;7.30;;;;;;;15.89;44.33;98286.73;514058;1107;115982;-63
2021/04/29 17:51:43;;;;;;;8.87;6.13;;;;;;;15.53;44.99;98301.91;509516;1100;116218;-63
2021/04/29 18:01:48;;;;;;;10.47;6.30;;;;;;;15.24;45.72;98313.74;513342;1107;115705;-65
2021/04/29 18:11:53;;;;;;;10.90;6.40;;;;;;;14.95;46.72;98317.58;513787;1107;115942;-63
2021/04/29 18:21:57;;;;;;;15.07;8.87;;;;;;;14.63;47.31;98323.48;520649;1107;115692;-64
2021/04/29 18:32:04;;;;;;;18.65;10.15;;;;;;;14.27;48.26;98324.38;495880;1103;20002110;-65
2021/04/29 18:42:09;;;;;;;25.07;12.63;;;;;;;14.07;49.29;98340.38;509831;1100;117176;-65
2021/04/29 18:52:13;;;;;;;21.90;13.10;;;;;;;14.00;49.98;98344.63;509335;1107;116928;-63
2021/04/29 19:02:19;;;;;;;23.30;16.25;;;;;;;13.94;50.55;98343.42;510282;1107;115914;-63
2021/04/29 19:12:24;;;;;;;35.17;20.70;;;;;;;13.94;50.66;98342.58;509937;1107;115698;-66
2021/04/29 19:22:29;;;;;;;27.70;17.77;;;;;;;13.88;51.20;98336.09;510077;1100;115961;-70
2021/04/29 19:32:35;;;;;;;26.33;16.17;;;;;;;13.86;51.39;98352.09;510340;1107;115772;-65
2021/04/29 19:42:41;;;;;;;33.13;20.67;;;;;;;13.87;52.09;98358.19;510366;1106;116278;-59
2021/04/29 19:52:46;;;;;;;32.40;21.03;;;;;;;13.91;52.16;98338.45;509984;1100;116024;-65
2021/04/29 20:02:50;;;;;;;27.20;18.97;;;;;;;13.95;52.45;98336.32;510821;1107;116241;-60
2021/04/29 20:12:56;;;;;;;33.13;20.77;;;;;;;13.99;52.60;98340.34;509405;1107;115941;-66
2021/04/29 20:23:00;;;;;;;41.47;21.57;;;;;;;14.00;53.25;98336.71;511343;1107;115944;-70
2021/04/29 20:33:06;;;;;;;27.55;17.55;;;;;;;13.94;53.43;98353.13;510859;1107;115807;-64
2021/04/29 20:43:10;;;;;;;19.55;13.53;;;;;;;13.97;53.72;98356.31;510603;1107;116056;-67
2021/04/29 20:53:15;;;;;;;22.17;13.93;;;;;;;14.05;53.71;98360.02;511096;1107;116480;-68
2021/04/29 21:03:19;;;;;;;13.07;10.00;;;;;;;14.01;52.77;98347.09;510631;1107;115739;-68
2021/04/29 21:13:24;;;;;;;11.17;8.17;;;;;;;13.72;53.22;98355.23;509187;1107;116623;-64
2021/04/29 21:23:28;;;;;;;11.90;9.60;;;;;;;13.45;53.18;98341.95;510116;1100;116013;-65
2021/04/29 21:33:33;;;;;;;12.27;10.27;;;;;;;13.18;54.03;98329.56;511140;1100;115497;-62
2021/04/29 21:43:38;;;;;;;13.97;10.07;;;;;;;12.87;55.26;98338.58;504277;1100;10001444;-61
2021/04/29 21:53:43;;;;;;;14.37;10.07;;;;;;;12.49;55.26;98344.77;511965;1104;116984;-61
2021/04/29 22:03:48;;;;;;;17.07;12.50;;;;;;;12.12;56.05;98365.58;511565;1104;116041;-61
2021/04/29 22:13:53;;;;;;;19.45;14.10;;;;;;;11.84;57.18;98359.30;512733;1104;117061;-60
2021/04/29 22:23:57;;;;;;;24.40;15.60;;;;;;;11.90;58.21;98364.84;515398;1104;116187;-60
2021/04/29 22:34:26;;;;;;;24.37;16.07;;;;;;;12.07;58.60;98427.48;512611;1104;117031;-59
2021/04/29 22:44:31;;;;;;;19.87;14.13;;;;;;;12.56;59.53;98444.11;516030;1104;115773;-59
2021/04/29 22:54:35;;;;;;;19.53;14.50;;;;;;;12.66;59.57;98454.63;511762;1104;116231;-60
2021/04/29 23:04:40;;;;;;;11.43;9.03;;;;;;;12.71;59.47;98457.69;512244;1100;116212;-59
2021/04/29 23:14:44;;;;;;;8.40;7.03;;;;;;;12.67;59.37;98468.64;515515;1104;115566;-61
2021/04/29 23:24:49;;;;;;;6.47;5.87;;;;;;;12.51;59.36;98472.64;514794;1104;116357;-59
2021/04/29 23:34:53;;;;;;;7.33;6.23;;;;;;;12.36;59.67;98453.81;515472;1099;116061;-59
2021/04/29 23:44:58;;;;;;;7.17;6.43;;;;;;;12.12;59.64;98455.05;511712;1099;116558;-59
2021/04/29 23:55:04;;;;;;;6.17;5.53;;;;;;;12.05;59.72;98459.98;511464;1100;115806;-60
